createdAt,value
2017-03-20T00:00:31.681Z,11.59
2017-03-20T00:01:32.051Z,11.61
2017-03-20T00:02:31.750Z,11.56
2017-03-20T00:03:32.120Z,11.61
2017-03-20T00:04:32.127Z,11.5
2017-03-20T00:05:31.857Z,11.62
2017-03-20T00:06:31.893Z,11.62
2017-03-20T00:07:32.265Z,11.61
2017-03-20T00:08:32.611Z,11.61
2017-03-20T00:09:32.644Z,11.67
2017-03-20T00:10:32.369Z,11.65
2017-03-20T00:11:32.074Z,11.62
2017-03-20T00:12:32.450Z,11.59
2017-03-20T00:13:32.792Z,11.64
2017-03-20T00:14:32.799Z,11.64
2017-03-20T00:15:32.573Z,11.61
2017-03-20T00:16:32.285Z,11.61
2017-03-20T00:17:32.625Z,11.56
2017-03-20T00:18:32.634Z,11.67
2017-03-20T00:19:32.700Z,11.64
2017-03-20T00:20:32.426Z,11.64
2017-03-20T00:21:33.043Z,11.61
2017-03-20T00:22:32.809Z,11.64
2017-03-20T00:23:32.847Z,11.7
2017-03-20T00:24:32.882Z,11.61
2017-03-20T00:25:32.611Z,11.61
2017-03-20T00:26:32.647Z,11.71
2017-03-20T00:27:32.957Z,11.65
2017-03-20T00:28:33.331Z,11.64
2017-03-20T00:29:32.731Z,11.64
2017-03-20T00:30:32.798Z,11.68
2017-03-20T00:31:32.800Z,11.72
2017-03-20T00:32:33.479Z,11.64
2017-03-20T00:33:33.181Z,11.68
2017-03-20T00:34:33.245Z,11.64
2017-03-20T00:35:32.980Z,11.68
2017-03-20T00:36:33.280Z,11.72
2017-03-20T00:37:33.047Z,11.72
2017-03-20T00:38:33.391Z,11.71
2017-03-20T00:39:33.114Z,11.68
2017-03-20T00:40:33.154Z,11.72
2017-03-20T00:41:33.162Z,11.67
2017-03-20T00:42:33.537Z,11.68
2017-03-20T00:43:33.572Z,11.65
2017-03-20T00:44:33.881Z,11.74
2017-03-20T00:45:33.635Z,11.68
2017-03-20T00:46:33.677Z,11.65
2017-03-20T00:47:33.380Z,11.71
2017-03-20T00:48:34.025Z,11.68
2017-03-20T00:49:33.787Z,11.74
2017-03-20T00:50:33.489Z,11.71
2017-03-20T00:51:33.560Z,11.7
2017-03-20T00:52:33.598Z,11.8
2017-03-20T00:53:34.246Z,11.7
2017-03-20T00:54:33.635Z,11.68
2017-03-20T00:55:33.706Z,11.68
2017-03-20T00:56:34.036Z,11.77
2017-03-20T00:57:33.742Z,11.65
2017-03-20T00:58:34.420Z,11.72
2017-03-20T00:59:34.119Z,11.71
2017-03-20T01:00:34.172Z,11.78
2017-03-20T01:01:33.904Z,11.68
2017-03-20T01:02:34.261Z,11.77
2017-03-20T01:03:33.968Z,11.71
2017-03-20T01:04:34.634Z,11.64
2017-03-20T01:05:34.033Z,11.72
2017-03-20T01:06:34.076Z,11.71
2017-03-20T01:07:34.473Z,11.7
2017-03-20T01:08:34.444Z,11.77
2017-03-20T01:09:34.816Z,11.72
2017-03-20T01:10:34.222Z,11.71
2017-03-20T01:11:34.277Z,11.7
2017-03-20T01:12:34.591Z,11.67
2017-03-20T01:13:34.658Z,11.68
2017-03-20T01:14:34.697Z,11.77
2017-03-20T01:15:34.420Z,11.68
2017-03-20T01:16:34.448Z,11.7
2017-03-20T01:17:34.811Z,11.71
2017-03-20T01:18:34.507Z,11.68
2017-03-20T01:19:34.842Z,11.72
2017-03-20T01:20:34.575Z,11.72
2017-03-20T01:21:34.612Z,11.64
2017-03-20T01:22:34.991Z,11.72
2017-03-20T01:23:35.025Z,11.7
2017-03-20T01:24:34.723Z,11.72
2017-03-20T01:25:35.364Z,11.68
2017-03-20T01:26:34.791Z,11.68
2017-03-20T01:27:34.860Z,11.74
2017-03-20T01:28:35.476Z,11.68
2017-03-20T01:29:35.236Z,11.72
2017-03-20T01:30:34.970Z,11.71
2017-03-20T01:31:34.981Z,11.7
2017-03-20T01:32:35.347Z,11.67
2017-03-20T01:33:35.686Z,11.7
2017-03-20T01:34:35.722Z,11.7
2017-03-20T01:35:35.121Z,11.65
2017-03-20T01:36:35.464Z,11.68
2017-03-20T01:37:35.495Z,11.68
2017-03-20T01:38:35.878Z,11.65
2017-03-20T01:39:35.607Z,11.67
2017-03-20T01:40:35.306Z,11.59
2017-03-20T01:41:35.987Z,11.67
2017-03-20T01:42:35.677Z,11.56
2017-03-20T01:43:36.063Z,11.67
2017-03-20T01:44:35.781Z,11.65
2017-03-20T01:45:35.790Z,11.67
2017-03-20T01:46:35.518Z,11.57
2017-03-20T01:47:35.861Z,11.62
2017-03-20T01:48:36.199Z,11.7
2017-03-20T01:49:36.237Z,11.62
2017-03-20T01:50:35.689Z,11.68
2017-03-20T01:51:36.032Z,11.59
2017-03-20T01:52:36.384Z,11.64
2017-03-20T01:53:36.378Z,11.59
2017-03-20T01:54:36.144Z,11.59
2017-03-20T01:55:35.846Z,11.57
2017-03-20T01:56:35.911Z,11.61
2017-03-20T01:57:36.559Z,11.56
2017-03-20T01:58:36.597Z,11.53
2017-03-20T01:59:36.292Z,11.59
2017-03-20T02:00:36.363Z,11.53
2017-03-20T02:01:36.395Z,11.54
2017-03-20T02:02:36.438Z,11.52
2017-03-20T02:03:36.446Z,11.53
2017-03-20T02:04:36.512Z,11.54
2017-03-20T02:05:36.230Z,11.56
2017-03-20T02:06:36.241Z,11.54
2017-03-20T02:07:36.620Z,11.56
2017-03-20T02:08:36.315Z,11.56
2017-03-20T02:09:36.381Z,11.52
2017-03-20T02:10:36.387Z,11.53
2017-03-20T02:11:36.759Z,11.57
2017-03-20T02:12:37.103Z,11.56
2017-03-20T02:13:36.803Z,11.62
2017-03-20T02:14:36.896Z,11.47
2017-03-20T02:15:36.903Z,11.52
2017-03-20T02:16:36.631Z,11.56
2017-03-20T02:17:37.291Z,11.53
2017-03-20T02:18:37.288Z,11.49
2017-03-20T02:19:37.048Z,11.49
2017-03-20T02:20:36.775Z,11.52
2017-03-20T02:21:36.813Z,11.52
2017-03-20T02:22:37.131Z,11.46
2017-03-20T02:23:37.466Z,11.61
2017-03-20T02:24:37.228Z,11.49
2017-03-20T02:25:36.963Z,11.52
2017-03-20T02:26:36.966Z,11.44
2017-03-20T02:27:37.648Z,11.49
2017-03-20T02:28:37.351Z,11.49
2017-03-20T02:29:37.387Z,11.49
2017-03-20T02:30:37.445Z,11.52
2017-03-20T02:31:37.147Z,11.47
2017-03-20T02:32:37.787Z,11.49
2017-03-20T02:33:37.557Z,11.46
2017-03-20T02:34:37.559Z,11.47
2017-03-20T02:35:37.594Z,11.53
2017-03-20T02:36:37.385Z,11.49
2017-03-20T02:37:37.364Z,11.43
2017-03-20T02:38:37.705Z,11.44
2017-03-20T02:39:37.775Z,11.49
2017-03-20T02:40:37.475Z,11.43
2017-03-20T02:41:37.846Z,11.44
2017-03-20T02:42:37.853Z,11.49
2017-03-20T02:43:38.196Z,11.47
2017-03-20T02:44:37.951Z,11.49
2017-03-20T02:45:37.959Z,11.46
2017-03-20T02:46:37.714Z,11.47
2017-03-20T02:47:38.029Z,11.44
2017-03-20T02:48:38.102Z,11.49
2017-03-20T02:49:38.101Z,11.47
2017-03-20T02:50:38.485Z,11.5
2017-03-20T02:51:37.872Z,11.49
2017-03-20T02:52:38.524Z,11.54
2017-03-20T02:53:37.974Z,11.39
2017-03-20T02:54:38.591Z,11.35
2017-03-20T02:55:38.055Z,11.47
2017-03-20T02:56:38.388Z,11.34
2017-03-20T02:57:38.733Z,11.46
2017-03-20T02:58:38.682Z,11.36
2017-03-20T02:59:38.164Z,11.31
2017-03-20T03:00:38.536Z,11.44
2017-03-20T03:01:38.574Z,11.41
2017-03-20T03:02:38.875Z,11.35
2017-03-20T03:03:38.651Z,11.43
2017-03-20T03:04:38.647Z,11.36
2017-03-20T03:05:38.687Z,11.32
2017-03-20T03:06:38.750Z,11.34
2017-03-20T03:07:39.052Z,11.35
2017-03-20T03:08:38.817Z,11.38
2017-03-20T03:09:38.519Z,11.31
2017-03-20T03:10:38.916Z,11.31
2017-03-20T03:11:38.936Z,11.35
2017-03-20T03:12:39.236Z,11.36
2017-03-20T03:13:38.972Z,11.34
2017-03-20T03:14:39.343Z,11.34
2017-03-20T03:15:38.765Z,11.31
2017-03-20T03:16:38.801Z,11.35
2017-03-20T03:17:39.151Z,11.21
2017-03-20T03:18:39.453Z,11.31
2017-03-20T03:19:38.912Z,11.32
2017-03-20T03:20:38.916Z,11.36
2017-03-20T03:21:38.952Z,11.34
2017-03-20T03:22:39.815Z,11.27
2017-03-20T03:23:39.677Z,11.24
2017-03-20T03:24:39.073Z,11.27
2017-03-20T03:25:39.398Z,11.36
2017-03-20T03:26:39.772Z,11.31
2017-03-20T03:27:39.475Z,11.35
2017-03-20T03:28:39.541Z,11.32
2017-03-20T03:29:39.850Z,11.27
2017-03-20T03:30:39.280Z,11.35
2017-03-20T03:31:39.343Z,11.35
2017-03-20T03:32:39.959Z,11.29
2017-03-20T03:33:39.723Z,11.31
2017-03-20T03:34:39.759Z,11.24
2017-03-20T03:35:39.482Z,11.21
2017-03-20T03:36:40.102Z,11.25
2017-03-20T03:37:39.872Z,11.27
2017-03-20T03:38:40.184Z,11.13
2017-03-20T03:39:39.605Z,11.16
2017-03-20T03:40:39.973Z,11.2
2017-03-20T03:41:39.673Z,11.19
2017-03-20T03:42:40.350Z,11.14
2017-03-20T03:43:40.054Z,11.14
2017-03-20T03:44:40.114Z,11.17
2017-03-20T03:45:39.818Z,11.16
2017-03-20T03:46:40.155Z,11.09
2017-03-20T03:47:40.193Z,11.14
2017-03-20T03:48:40.569Z,11.03
2017-03-20T03:49:40.264Z,11.06
2017-03-20T03:50:39.999Z,11.03
2017-03-20T03:51:40.372Z,11.06
2017-03-20T03:52:40.692Z,11.02
2017-03-20T03:53:40.714Z,11.07
2017-03-20T03:54:40.446Z,11.03
2017-03-20T03:55:40.483Z,10.99
2017-03-20T03:56:40.515Z,11.1
2017-03-20T03:57:40.866Z,11.03
2017-03-20T03:58:40.590Z,11.09
2017-03-20T03:59:40.971Z,11.1
2017-03-20T04:00:40.660Z,11.03
2017-03-20T04:01:40.724Z,11.11
2017-03-20T04:02:40.731Z,11.11
2017-03-20T04:03:40.472Z,11.1
2017-03-20T04:04:40.501Z,11.11
2017-03-20T04:05:40.872Z,11.13
2017-03-20T04:06:41.214Z,11.16
2017-03-20T04:07:40.942Z,11.14
2017-03-20T04:08:40.980Z,11.17
2017-03-20T04:09:41.022Z,11.17
2017-03-20T04:10:41.051Z,11.1
2017-03-20T04:11:41.053Z,11.19
2017-03-20T04:12:41.394Z,11.16
2017-03-20T04:13:41.432Z,11.19
2017-03-20T04:14:41.164Z,11.11
2017-03-20T04:15:41.227Z,11.2
2017-03-20T04:16:40.965Z,11.19
2017-03-20T04:17:41.577Z,11.16
2017-03-20T04:18:41.647Z,11.17
2017-03-20T04:19:41.063Z,11.2
2017-03-20T04:20:41.095Z,11.14
2017-03-20T04:21:41.114Z,11.16
2017-03-20T04:22:41.753Z,11.17
2017-03-20T04:23:41.822Z,11.19
2017-03-20T04:24:41.524Z,11.21
2017-03-20T04:25:41.279Z,11.25
2017-03-20T04:26:41.595Z,11.24
2017-03-20T04:27:41.666Z,11.28
2017-03-20T04:28:41.702Z,11.16
2017-03-20T04:29:41.401Z,11.14
2017-03-20T04:30:41.473Z,11.11
2017-03-20T04:31:41.503Z,11.29
2017-03-20T04:32:41.849Z,11.21
2017-03-20T04:33:41.882Z,11.2
2017-03-20T04:34:41.611Z,11.28
2017-03-20T04:35:41.950Z,11.25
2017-03-20T04:36:41.676Z,11.27
2017-03-20T04:37:42.032Z,11.27
2017-03-20T04:38:42.334Z,11.27
2017-03-20T04:39:42.099Z,11.25
2017-03-20T04:40:42.135Z,11.2
2017-03-20T04:41:41.857Z,11.27
2017-03-20T04:42:42.205Z,11.25
2017-03-20T04:43:42.208Z,11.25
2017-03-20T04:44:42.275Z,11.24
2017-03-20T04:45:42.278Z,11.2
2017-03-20T04:46:42.036Z,11.24
2017-03-20T04:47:42.420Z,11.32
2017-03-20T04:48:42.430Z,11.24
2017-03-20T04:49:42.453Z,11.21
2017-03-20T04:50:42.157Z,11.27
2017-03-20T04:51:42.527Z,11.35
2017-03-20T04:52:42.565Z,11.24
2017-03-20T04:53:42.571Z,11.31
2017-03-20T04:54:42.326Z,11.2
2017-03-20T04:55:42.365Z,11.27
2017-03-20T04:56:42.370Z,11.29
2017-03-20T04:57:42.410Z,11.24
2017-03-20T04:58:43.085Z,11.2
2017-03-20T04:59:42.816Z,11.31
2017-03-20T05:00:42.522Z,11.27
2017-03-20T05:01:42.557Z,11.31
2017-03-20T05:02:43.199Z,11.2
2017-03-20T05:03:42.961Z,11.28
2017-03-20T05:04:42.691Z,11.29
2017-03-20T05:05:42.722Z,11.25
2017-03-20T05:06:42.758Z,11.25
2017-03-20T05:07:43.374Z,11.25
2017-03-20T05:08:43.450Z,11.27
2017-03-20T05:09:43.143Z,11.34
2017-03-20T05:10:42.907Z,11.28
2017-03-20T05:11:42.913Z,11.2
2017-03-20T05:12:43.261Z,11.2
2017-03-20T05:13:43.014Z,11.28
2017-03-20T05:14:43.052Z,11.32
2017-03-20T05:15:43.082Z,11.25
2017-03-20T05:16:43.126Z,11.25
2017-03-20T05:17:43.436Z,11.17
2017-03-20T05:18:43.501Z,11.27
2017-03-20T05:19:43.842Z,11.21
2017-03-20T05:20:43.235Z,11.24
2017-03-20T05:21:43.606Z,11.24
2017-03-20T05:22:43.644Z,11.28
2017-03-20T05:23:43.683Z,11.24
2017-03-20T05:24:43.380Z,11.25
2017-03-20T05:25:44.057Z,11.25
2017-03-20T05:26:43.788Z,11.28
2017-03-20T05:27:43.792Z,11.21
2017-03-20T05:28:43.827Z,11.28
2017-03-20T05:29:43.880Z,11.27
2017-03-20T05:30:43.931Z,11.31
2017-03-20T05:31:43.632Z,11.25
2017-03-20T05:32:44.034Z,11.31
2017-03-20T05:33:44.318Z,11.21
2017-03-20T05:34:44.076Z,11.17
2017-03-20T05:35:44.110Z,11.24
2017-03-20T05:36:44.147Z,11.24
2017-03-20T05:37:44.484Z,11.19
2017-03-20T05:38:44.220Z,11.13
2017-03-20T05:39:43.921Z,11.14
2017-03-20T05:40:43.992Z,11.14
2017-03-20T05:41:43.993Z,11.19
2017-03-20T05:42:44.666Z,11.16
2017-03-20T05:43:44.707Z,11.13
2017-03-20T05:44:44.117Z,11.11
2017-03-20T05:45:44.142Z,11.16
2017-03-20T05:46:44.508Z,11.14
2017-03-20T05:47:44.558Z,11.1
2017-03-20T05:48:44.896Z,11.1
2017-03-20T05:49:44.341Z,11.03
2017-03-20T05:50:44.316Z,11.06
2017-03-20T05:51:44.382Z,11.17
2017-03-20T05:52:44.724Z,11.02
2017-03-20T05:53:45.035Z,11.06
2017-03-20T05:54:44.852Z,11.03
2017-03-20T05:55:45.100Z,11.07
2017-03-20T05:56:44.869Z,11.06
2017-03-20T05:57:45.174Z,10.99
2017-03-20T05:58:44.911Z,10.95
2017-03-20T05:59:44.942Z,10.92
2017-03-20T06:00:44.700Z,10.96
2017-03-20T06:01:44.736Z,10.95
2017-03-20T06:02:44.779Z,10.96
2017-03-20T06:03:45.120Z,10.96
2017-03-20T06:04:45.125Z,10.99
2017-03-20T06:05:44.905Z,10.92
2017-03-20T06:06:45.198Z,10.91
2017-03-20T06:07:44.934Z,10.99
2017-03-20T06:08:45.272Z,10.98
2017-03-20T06:09:44.999Z,10.96
2017-03-20T06:10:45.033Z,10.94
2017-03-20T06:11:45.085Z,10.95
2017-03-20T06:12:45.446Z,10.94
2017-03-20T06:13:45.779Z,10.98
2017-03-20T06:14:45.181Z,10.94
2017-03-20T06:15:45.520Z,11.01
2017-03-20T06:16:45.587Z,10.95
2017-03-20T06:17:45.895Z,10.94
2017-03-20T06:18:45.969Z,10.91
2017-03-20T06:19:45.387Z,10.95
2017-03-20T06:20:45.730Z,10.98
2017-03-20T06:21:45.460Z,11.02
2017-03-20T06:22:46.112Z,11.02
2017-03-20T06:23:45.837Z,11.01
2017-03-20T06:24:45.543Z,10.99
2017-03-20T06:25:45.625Z,11.06
2017-03-20T06:26:45.954Z,11.11
2017-03-20T06:27:46.293Z,11.11
2017-03-20T06:28:46.053Z,11.11
2017-03-20T06:29:45.744Z,11.1
2017-03-20T06:30:45.823Z,11.19
2017-03-20T06:31:46.158Z,11.16
2017-03-20T06:32:46.144Z,11.25
2017-03-20T06:33:46.469Z,11.13
2017-03-20T06:34:46.201Z,11.25
2017-03-20T06:35:45.936Z,11.28
2017-03-20T06:36:46.651Z,11.28
2017-03-20T06:37:46.660Z,11.2
2017-03-20T06:38:46.251Z,11.34
2017-03-20T06:39:46.385Z,11.31
2017-03-20T06:40:46.140Z,11.35
2017-03-20T06:41:46.155Z,11.2
2017-03-20T06:42:46.554Z,11.35
2017-03-20T06:43:46.833Z,11.34
2017-03-20T06:44:46.873Z,11.31
2017-03-20T06:45:46.328Z,11.31
2017-03-20T06:46:46.332Z,11.36
2017-03-20T06:47:47.173Z,11.21
2017-03-20T06:48:46.407Z,11.32
2017-03-20T06:49:46.444Z,11.29
2017-03-20T06:50:46.826Z,11.32
2017-03-20T06:51:46.518Z,11.43
2017-03-20T06:52:46.586Z,11.38
2017-03-20T06:53:47.196Z,11.36
2017-03-20T06:54:47.126Z,11.34
2017-03-20T06:55:46.855Z,11.32
2017-03-20T06:56:47.001Z,11.35
2017-03-20T06:57:47.066Z,11.31
2017-03-20T06:58:47.071Z,11.41
2017-03-20T06:59:46.805Z,11.49
2017-03-20T07:00:47.486Z,11.34
2017-03-20T07:01:46.919Z,11.35
2017-03-20T07:02:46.941Z,11.53
2017-03-20T07:03:47.557Z,11.47
2017-03-20T07:04:47.290Z,11.43
2017-03-20T07:05:47.052Z,11.44
2017-03-20T07:06:47.395Z,11.46
2017-03-20T07:07:47.095Z,11.43
2017-03-20T07:08:47.473Z,11.38
2017-03-20T07:09:47.167Z,11.44
2017-03-20T07:10:47.230Z,11.54
2017-03-20T07:11:47.245Z,11.53
2017-03-20T07:12:47.883Z,11.49
2017-03-20T07:13:47.314Z,11.52
2017-03-20T07:14:47.659Z,11.54
2017-03-20T07:15:47.688Z,11.54
2017-03-20T07:16:48.030Z,11.52
2017-03-20T07:17:47.790Z,11.57
2017-03-20T07:18:47.803Z,11.56
2017-03-20T07:19:47.839Z,11.54
2017-03-20T07:20:47.870Z,11.61
2017-03-20T07:21:47.945Z,11.65
2017-03-20T07:22:48.281Z,11.68
2017-03-20T07:23:48.285Z,11.71
2017-03-20T07:24:48.012Z,11.62
2017-03-20T07:25:48.050Z,11.7
2017-03-20T07:26:48.090Z,11.7
2017-03-20T07:27:48.435Z,11.68
2017-03-20T07:28:48.194Z,11.7
2017-03-20T07:29:48.199Z,11.83
2017-03-20T07:30:47.949Z,11.87
2017-03-20T07:31:48.300Z,11.8
2017-03-20T07:32:48.613Z,11.82
2017-03-20T07:33:48.649Z,11.9
2017-03-20T07:34:48.104Z,11.85
2017-03-20T07:35:48.137Z,11.89
2017-03-20T07:36:48.753Z,12.05
2017-03-20T07:37:48.212Z,12.05
2017-03-20T07:38:48.530Z,12.01
2017-03-20T07:39:48.565Z,12.06
2017-03-20T07:40:48.298Z,12.08
2017-03-20T07:41:48.670Z,12.11
2017-03-20T07:42:48.407Z,12.15
2017-03-20T07:43:48.754Z,12.2
2017-03-20T07:44:48.475Z,12.29
2017-03-20T07:45:48.823Z,12.27
2017-03-20T07:46:48.972Z,12.34
2017-03-20T07:47:49.198Z,12.27
2017-03-20T07:48:49.205Z,12.3
2017-03-20T07:49:48.935Z,12.34
2017-03-20T07:50:48.672Z,12.26
2017-03-20T07:51:48.705Z,12.33
2017-03-20T07:52:48.772Z,12.37
2017-03-20T07:53:48.785Z,12.38
2017-03-20T07:54:49.119Z,12.38
2017-03-20T07:55:48.882Z,12.46
2017-03-20T07:56:49.229Z,12.57
2017-03-20T07:57:48.931Z,12.54
2017-03-20T07:58:49.618Z,12.52
2017-03-20T07:59:49.611Z,12.67
2017-03-20T08:00:49.070Z,12.63
2017-03-20T08:01:49.392Z,12.64
2017-03-20T08:02:49.420Z,12.7
2017-03-20T08:03:49.456Z,12.66
2017-03-20T08:04:49.495Z,12.71
2017-03-20T08:05:49.628Z,12.78
2017-03-20T08:06:49.297Z,12.75
2017-03-20T08:07:49.644Z,12.71
2017-03-20T08:08:49.645Z,12.74
2017-03-20T08:09:49.685Z,12.79
2017-03-20T08:10:49.442Z,12.78
2017-03-20T08:11:50.064Z,12.79
2017-03-20T08:12:50.096Z,12.82
2017-03-20T08:13:50.131Z,12.81
2017-03-20T08:14:49.594Z,12.88
2017-03-20T08:15:49.934Z,12.97
2017-03-20T08:16:50.252Z,12.97
2017-03-20T08:17:49.993Z,13.06
2017-03-20T08:18:50.053Z,13.09
2017-03-20T08:19:49.783Z,13.12
2017-03-20T08:20:50.149Z,13.22
2017-03-20T08:21:50.133Z,13.18
2017-03-20T08:22:50.175Z,13.21
2017-03-20T08:23:50.243Z,13.14
2017-03-20T08:24:49.971Z,13.21
2017-03-20T08:25:50.006Z,13.15
2017-03-20T08:26:50.359Z,13.21
2017-03-20T08:27:50.055Z,13.2
2017-03-20T08:28:50.400Z,13.2
2017-03-20T08:29:50.448Z,13.15
2017-03-20T08:30:50.173Z,13.22
2017-03-20T08:31:50.511Z,13.32
2017-03-20T08:32:50.274Z,13.24
2017-03-20T08:33:50.893Z,13.25
2017-03-20T08:34:50.636Z,13.22
2017-03-20T08:35:50.386Z,13.21
2017-03-20T08:36:51.150Z,13.2
2017-03-20T08:37:50.736Z,13.27
2017-03-20T08:38:50.502Z,13.29
2017-03-20T08:39:50.516Z,13.36
2017-03-20T08:40:50.549Z,13.36
2017-03-20T08:41:50.925Z,13.3
2017-03-20T08:42:50.935Z,13.43
2017-03-20T08:43:51.267Z,13.41
2017-03-20T08:44:52.207Z,13.56
2017-03-20T08:45:51.043Z,13.61
2017-03-20T08:46:51.081Z,13.54
2017-03-20T08:47:51.120Z,13.55
2017-03-20T08:48:50.887Z,13.63
2017-03-20T08:49:50.894Z,13.59
2017-03-20T08:50:51.234Z,13.58
2017-03-20T08:51:51.575Z,13.56
2017-03-20T08:52:51.314Z,13.61
2017-03-20T08:53:51.353Z,13.61
2017-03-20T08:54:51.096Z,13.56
2017-03-20T08:55:51.425Z,13.56
2017-03-20T08:56:51.159Z,13.54
2017-03-20T08:57:51.197Z,13.58
2017-03-20T08:58:51.579Z,13.62
2017-03-20T08:59:51.284Z,13.56
2017-03-20T09:00:51.357Z,13.54
2017-03-20T09:01:51.685Z,13.49
2017-03-20T09:02:51.850Z,13.58
2017-03-20T09:03:51.739Z,13.62
2017-03-20T09:04:51.473Z,13.59
2017-03-20T09:05:51.537Z,13.59
2017-03-20T09:06:51.571Z,13.59
2017-03-20T09:07:52.196Z,13.58
2017-03-20T09:08:52.314Z,13.59
2017-03-20T09:09:52.296Z,13.62
2017-03-20T09:10:51.692Z,13.61
2017-03-20T09:11:52.078Z,13.56
2017-03-20T09:12:52.432Z,13.55
2017-03-20T09:13:52.165Z,13.52
2017-03-20T09:14:52.185Z,13.61
2017-03-20T09:15:51.893Z,13.52
2017-03-20T09:16:52.230Z,13.51
2017-03-20T09:17:52.604Z,13.55
2017-03-20T09:18:52.335Z,13.51
2017-03-20T09:19:52.684Z,13.47
2017-03-20T09:20:52.404Z,13.41
2017-03-20T09:21:52.114Z,13.43
2017-03-20T09:22:52.479Z,13.43
2017-03-20T09:23:52.195Z,13.51
2017-03-20T09:24:52.567Z,13.43
2017-03-20T09:25:52.269Z,13.51
2017-03-20T09:26:52.335Z,13.51
2017-03-20T09:27:52.983Z,13.58
2017-03-20T09:28:52.688Z,13.52
2017-03-20T09:29:52.465Z,13.54
2017-03-20T09:30:52.459Z,13.49
2017-03-20T09:31:52.833Z,13.38
2017-03-20T09:32:52.839Z,13.38
2017-03-20T09:33:52.913Z,13.38
2017-03-20T09:34:53.214Z,13.33
2017-03-20T09:35:52.647Z,13.32
2017-03-20T09:36:52.689Z,13.32
2017-03-20T09:37:53.058Z,13.38
2017-03-20T09:38:52.763Z,13.36
2017-03-20T09:39:52.830Z,13.36
2017-03-20T09:40:53.170Z,13.43
2017-03-20T09:41:53.182Z,13.32
2017-03-20T09:42:53.219Z,13.25
2017-03-20T09:43:53.555Z,13.36
2017-03-20T09:44:53.626Z,13.32
2017-03-20T09:45:53.329Z,13.33
2017-03-20T09:46:53.096Z,13.33
2017-03-20T09:47:53.709Z,13.4
2017-03-20T09:48:53.137Z,13.36
2017-03-20T09:49:53.481Z,13.36
2017-03-20T09:50:53.552Z,13.4
2017-03-20T09:51:53.578Z,13.49
2017-03-20T09:52:53.288Z,13.51
2017-03-20T09:53:54.009Z,13.49
2017-03-20T09:54:53.791Z,13.55
2017-03-20T09:55:53.431Z,13.62
2017-03-20T09:56:53.782Z,13.55
2017-03-20T09:57:53.478Z,13.69
2017-03-20T09:58:53.551Z,13.8
2017-03-20T09:59:53.902Z,13.8
2017-03-20T10:00:53.640Z,13.91
2017-03-20T10:01:53.661Z,13.94
2017-03-20T10:02:54.290Z,13.94
2017-03-20T10:03:54.048Z,14.02
2017-03-20T10:04:54.061Z,14.02
2017-03-20T10:05:53.809Z,14.14
2017-03-20T10:06:54.141Z,14.14
2017-03-20T10:07:54.477Z,14.09
2017-03-20T10:08:54.237Z,14.12
2017-03-20T10:09:54.277Z,14.24
2017-03-20T10:10:54.283Z,14.2
2017-03-20T10:11:54.077Z,14.24
2017-03-20T10:12:54.390Z,14.16
2017-03-20T10:13:54.399Z,14.28
2017-03-20T10:14:54.166Z,14.34
2017-03-20T10:15:54.474Z,14.38
2017-03-20T10:16:54.513Z,14.28
2017-03-20T10:17:54.554Z,14.27
2017-03-20T10:18:54.638Z,14.27
2017-03-20T10:19:54.356Z,14.29
2017-03-20T10:20:54.411Z,14.2
2017-03-20T10:21:55.045Z,14.29
2017-03-20T10:22:54.791Z,14.35
2017-03-20T10:23:54.818Z,14.34
2017-03-20T10:24:54.835Z,14.42
2017-03-20T10:25:54.891Z,14.39
2017-03-20T10:26:54.933Z,14.43
2017-03-20T10:27:55.279Z,14.34
2017-03-20T10:28:54.982Z,14.46
2017-03-20T10:29:54.719Z,14.42
2017-03-20T10:30:54.753Z,14.56
2017-03-20T10:31:55.129Z,14.5
2017-03-20T10:32:55.142Z,14.62
2017-03-20T10:33:54.883Z,14.67
2017-03-20T10:34:55.519Z,14.78
2017-03-20T10:35:54.985Z,14.69
2017-03-20T10:36:55.338Z,14.84
2017-03-20T10:37:55.347Z,14.9
2017-03-20T10:38:55.067Z,14.88
2017-03-20T10:39:55.755Z,14.93
2017-03-20T10:40:55.146Z,15.11
2017-03-20T10:41:55.249Z,15.17
2017-03-20T10:42:55.531Z,15.21
2017-03-20T10:43:55.579Z,15.27
2017-03-20T10:44:55.917Z,15.36
2017-03-20T10:45:55.678Z,15.39
2017-03-20T10:46:55.685Z,15.42
2017-03-20T10:47:55.731Z,15.43
2017-03-20T10:48:55.470Z,15.54
2017-03-20T10:49:55.812Z,15.48
2017-03-20T10:50:55.544Z,15.49
2017-03-20T10:51:55.584Z,15.45
2017-03-20T10:52:55.959Z,15.43
2017-03-20T10:53:55.980Z,15.36
2017-03-20T10:54:56.013Z,15.35
2017-03-20T10:55:56.050Z,15.27
2017-03-20T10:56:56.088Z,15.23
2017-03-20T10:57:56.158Z,15.15
2017-03-20T10:58:55.895Z,15.2
2017-03-20T10:59:56.213Z,15.02
2017-03-20T11:00:56.389Z,15.12
2017-03-20T11:01:56.008Z,14.99
2017-03-20T11:02:56.660Z,15.03
2017-03-20T11:03:56.398Z,15.08
2017-03-20T11:04:56.132Z,15.08
2017-03-20T11:05:56.144Z,15.09
2017-03-20T11:06:56.183Z,15.19
2017-03-20T11:07:56.256Z,15.33
2017-03-20T11:08:56.483Z,15.42
2017-03-20T11:09:56.960Z,15.46
2017-03-20T11:10:56.362Z,15.45
2017-03-20T11:11:56.918Z,15.39
2017-03-20T11:12:56.751Z,15.42
2017-03-20T11:13:56.461Z,15.35
2017-03-20T11:14:56.541Z,15.41
2017-03-20T11:15:56.561Z,15.35
2017-03-20T11:16:56.577Z,15.33
2017-03-20T11:17:57.228Z,15.48
2017-03-20T11:18:56.967Z,15.42
2017-03-20T11:19:57.001Z,15.51
2017-03-20T11:20:56.732Z,15.6
2017-03-20T11:21:57.078Z,15.7
2017-03-20T11:22:57.147Z,15.89
2017-03-20T11:23:57.462Z,15.99
2017-03-20T11:24:57.220Z,15.97
2017-03-20T11:25:56.958Z,16.07
2017-03-20T11:26:57.005Z,16.12
2017-03-20T11:27:57.023Z,16.2
2017-03-20T11:28:57.083Z,16.3
2017-03-20T11:29:57.437Z,16.25
2017-03-20T11:30:57.438Z,16.18
2017-03-20T11:31:57.214Z,16.23
2017-03-20T11:32:57.556Z,16.34
2017-03-20T11:33:57.303Z,16.34
2017-03-20T11:34:57.941Z,16.44
2017-03-20T11:35:57.679Z,16.5
2017-03-20T11:36:57.408Z,16.48
2017-03-20T11:37:57.452Z,16.56
2017-03-20T11:38:57.798Z,16.58
2017-03-20T11:39:57.859Z,16.71
2017-03-20T11:40:57.549Z,16.77
2017-03-20T11:41:57.901Z,16.89
2017-03-20T11:42:57.937Z,16.89
2017-03-20T11:43:58.287Z,16.88
2017-03-20T11:44:58.062Z,16.88
2017-03-20T11:45:57.757Z,16.78
2017-03-20T11:46:57.830Z,16.73
2017-03-20T11:47:58.175Z,16.71
2017-03-20T11:48:57.976Z,16.73
2017-03-20T11:49:58.593Z,16.75
2017-03-20T11:50:58.573Z,16.74
2017-03-20T11:51:58.031Z,16.71
2017-03-20T11:52:58.722Z,16.78
2017-03-20T11:53:58.697Z,16.8
2017-03-20T11:54:58.470Z,16.77
2017-03-20T11:55:58.491Z,16.81
2017-03-20T11:56:58.220Z,16.77
2017-03-20T11:57:58.593Z,16.8
2017-03-20T11:58:58.632Z,16.77
2017-03-20T11:59:58.950Z,16.71
2017-03-20T12:00:58.409Z,16.78
2017-03-20T12:01:58.792Z,16.75
2017-03-20T12:02:58.804Z,16.7
2017-03-20T12:03:58.812Z,16.74
2017-03-20T12:04:58.854Z,16.78
2017-03-20T12:05:58.592Z,16.7
2017-03-20T12:06:59.237Z,16.71
2017-03-20T12:07:58.710Z,16.77
2017-03-20T12:08:58.744Z,16.83
2017-03-20T12:09:59.392Z,16.75
2017-03-20T12:10:58.817Z,16.74
2017-03-20T12:11:59.167Z,16.78
2017-03-20T12:12:58.904Z,16.7
2017-03-20T12:13:59.255Z,16.74
2017-03-20T12:14:58.963Z,16.62
2017-03-20T12:15:59.023Z,16.59
2017-03-20T12:16:59.354Z,16.6
2017-03-20T12:17:59.415Z,16.5
2017-03-20T12:18:59.148Z,16.52
2017-03-20T12:19:59.466Z,16.42
2017-03-20T12:20:59.202Z,16.34
2017-03-20T12:21:59.243Z,16.37
2017-03-20T12:22:59.617Z,16.45
2017-03-20T12:23:59.350Z,16.5
2017-03-20T12:24:59.674Z,16.49
2017-03-20T12:25:59.965Z,16.5
2017-03-20T12:26:59.476Z,16.44
2017-03-20T12:28:00.130Z,16.45
2017-03-20T12:28:59.861Z,16.34
2017-03-20T12:30:00.259Z,16.23
2017-03-20T12:30:59.608Z,16.23
2017-03-20T12:31:59.651Z,16.22
2017-03-20T12:33:00.012Z,16.12
2017-03-20T12:33:59.736Z,16.18
2017-03-20T12:34:59.798Z,16.2
2017-03-20T12:35:59.814Z,16.18
2017-03-20T12:36:59.850Z,16.16
2017-03-20T12:37:59.891Z,16.11
2017-03-20T12:39:00.276Z,16.06
2017-03-20T12:40:00.302Z,16.03
2017-03-20T12:41:00.011Z,16.01
2017-03-20T12:42:00.354Z,15.94
2017-03-20T12:43:00.109Z,16.01
2017-03-20T12:44:00.770Z,16
2017-03-20T12:45:00.509Z,15.93
2017-03-20T12:46:00.729Z,15.96
2017-03-20T12:47:00.281Z,16.06
2017-03-20T12:48:00.594Z,16.14
2017-03-20T12:49:00.940Z,16.18
2017-03-20T12:50:00.400Z,16.18
2017-03-20T12:51:00.719Z,16.23
2017-03-20T12:52:01.086Z,16.26
2017-03-20T12:53:01.103Z,16.33
2017-03-20T12:54:00.878Z,16.33
2017-03-20T12:55:00.886Z,16.44
2017-03-20T12:56:00.609Z,16.4